Time;durP1;ratioP1;P1;durP2;ratioP2;P2;SDS_P1;SDS_P2;PMS_P1;PMS_P2;Temp;Humidity;BMP_temperature;BMP_pressure;BME280_temperature;BME280_humidity;BME280_pressure;Samples;Min_cycle;Max_cycle;Signal;HPM_P1;HPM_P2
2021/08/16 00:00:52;;;;;;;12.55;1.80;;;17.90;96.80;;;;;;5055113;28;20062;-81
2021/08/16 00:03:18;;;;;;;11.13;1.60;;;18.00;96.80;;;;;;5021543;28;20055;-81
2021/08/16 00:05:44;;;;;;;7.78;1.65;;;18.00;96.70;;;;;;5021118;28;20376;-81
2021/08/16 00:08:11;;;;;;;11.73;1.40;;;18.10;96.70;;;;;;5086786;28;20089;-81
2021/08/16 00:10:38;;;;;;;15.18;3.20;;;18.10;96.70;;;;;;5023710;28;20078;-81
2021/08/16 00:13:06;;;;;;;9.43;1.73;;;18.10;96.70;;;;;;5054641;28;20042;-81
2021/08/16 00:15:33;;;;;;;11.68;1.85;;;18.20;96.70;;;;;;5067020;28;20830;-80
2021/08/16 00:18:00;;;;;;;9.27;1.58;;;18.20;96.70;;;;;;5053728;28;20051;-81
2021/08/16 00:20:27;;;;;;;10.82;2.00;;;18.20;96.70;;;;;;5054600;28;20039;-81
2021/08/16 00:22:54;;;;;;;12.43;2.33;;;18.20;96.70;;;;;;5071401;28;20039;-81
2021/08/16 00:25:20;;;;;;;9.90;2.00;;;18.20;96.70;;;;;;5073856;28;20046;-81
2021/08/16 00:27:47;;;;;;;8.55;1.77;;;18.20;96.80;;;;;;5074239;28;20425;-81
2021/08/16 00:30:14;;;;;;;10.27;1.88;;;18.20;96.80;;;;;;5058586;28;20517;-81
2021/08/16 00:32:40;;;;;;;8.07;1.73;;;18.20;96.80;;;;;;5091017;28;20055;-82
2021/08/16 00:35:07;;;;;;;10.32;1.58;;;18.20;96.90;;;;;;5073489;28;20040;-83
2021/08/16 00:37:34;;;;;;;11.10;2.65;;;18.20;96.90;;;;;;5054752;28;20047;-83
2021/08/16 00:40:00;;;;;;;14.77;6.05;;;18.20;96.90;;;;;;5071105;28;20498;-82
2021/08/16 00:42:27;;;;;;;13.57;3.45;;;18.30;97.00;;;;;;5056540;28;20050;-83
2021/08/16 00:44:53;;;;;;;12.25;4.00;;;18.30;96.90;;;;;;5077455;28;20063;-84
2021/08/16 00:47:21;;;;;;;10.18;2.40;;;18.30;96.90;;;;;;5042952;28;20055;-83
2021/08/16 00:49:49;;;;;;;9.82;2.08;;;18.30;96.80;;;;;;5079190;28;20398;-83
2021/08/16 00:52:16;;;;;;;10.15;1.77;;;18.30;96.80;;;;;;5073961;28;20150;-78
2021/08/16 00:54:43;;;;;;;12.43;2.25;;;18.30;96.80;;;;;;5078131;28;20044;-81
2021/08/16 00:57:10;;;;;;;10.57;2.45;;;18.30;96.80;;;;;;5074403;28;20052;-82
2021/08/16 00:59:36;;;;;;;11.63;2.20;;;18.30;96.90;;;;;;5073079;28;20537;-81
2021/08/16 01:02:03;;;;;;;11.05;2.05;;;18.20;96.90;;;;;;5074017;28;20047;-81
2021/08/16 01:04:30;;;;;;;10.07;2.00;;;18.20;96.90;;;;;;5062368;28;20509;-81
2021/08/16 01:06:57;;;;;;;15.63;2.83;;;18.20;97.00;;;;;;5072522;28;20035;-81
2021/08/16 01:09:23;;;;;;;9.48;1.77;;;18.20;97.00;;;;;;5055911;28;20061;-81
2021/08/16 01:11:51;;;;;;;18.40;2.97;;;18.10;97.00;;;;;;5057317;28;20051;-82
2021/08/16 01:14:19;;;;;;;12.88;2.38;;;18.10;97.10;;;;;;5060664;28;20035;-81
2021/08/16 01:16:47;;;;;;;8.60;1.40;;;18.10;97.20;;;;;;5071465;28;20051;-81
2021/08/16 01:19:15;;;;;;;11.93;2.17;;;18.10;97.20;;;;;;5071752;28;20051;-81
2021/08/16 01:21:42;;;;;;;13.13;2.30;;;18.10;97.20;;;;;;5092088;28;20042;-81
2021/08/16 01:24:08;;;;;;;13.10;2.10;;;18.10;97.30;;;;;;5065031;28;20425;-81
2021/08/16 01:26:35;;;;;;;13.13;2.78;;;18.10;97.30;;;;;;5073393;28;20039;-81
2021/08/16 01:29:04;;;;;;;11.88;2.30;;;18.10;97.50;;;;;;5041414;28;20537;-80
2021/08/16 01:31:31;;;;;;;12.75;2.60;;;18.00;97.50;;;;;;5073119;28;20051;-81
2021/08/16 01:33:57;;;;;;;14.32;3.08;;;18.00;97.60;;;;;;5058585;28;20043;-81
2021/08/16 01:36:23;;;;;;;10.82;1.95;;;18.00;97.60;;;;;;5072878;28;20080;-81
2021/08/16 01:38:50;;;;;;;6.07;1.42;;;18.00;97.60;;;;;;5072494;28;20039;-81
2021/08/16 01:41:16;;;;;;;11.27;1.90;;;18.00;97.70;;;;;;5056673;28;20052;-81
2021/08/16 01:43:43;;;;;;;11.43;2.15;;;18.00;97.70;;;;;;5057517;28;20055;-81
2021/08/16 01:46:09;;;;;;;13.85;1.83;;;18.00;97.70;;;;;;5056983;28;20386;-81
2021/08/16 01:48:36;;;;;;;16.10;2.63;;;18.00;97.80;;;;;;5074179;28;20043;-81
2021/08/16 01:51:02;;;;;;;10.95;2.05;;;18.00;97.80;;;;;;5041642;28;20945;-81
2021/08/16 01:53:28;;;;;;;12.88;2.35;;;18.00;97.80;;;;;;5091652;28;20034;-81
2021/08/16 01:55:55;;;;;;;8.70;1.70;;;18.00;97.90;;;;;;5041149;28;20050;-81
2021/08/16 01:58:21;;;;;;;9.73;1.80;;;18.00;97.90;;;;;;5072184;28;20055;-81
2021/08/16 02:00:48;;;;;;;12.27;2.13;;;18.00;97.90;;;;;;5039749;27;20043;-80
2021/08/16 02:03:14;;;;;;;11.65;1.90;;;18.00;97.90;;;;;;5075637;28;20121;-81
2021/08/16 02:05:41;;;;;;;14.70;2.35;;;18.00;97.90;;;;;;5047634;28;20486;-81
2021/08/16 02:08:08;;;;;;;14.48;2.30;;;18.00;98.00;;;;;;5089185;28;20031;-80
2021/08/16 02:10:34;;;;;;;11.23;1.90;;;18.00;98.10;;;;;;5075353;27;20039;-81
2021/08/16 02:13:01;;;;;;;11.93;2.20;;;17.90;98.10;;;;;;5056270;28;20051;-81
2021/08/16 02:15:28;;;;;;;11.50;2.67;;;17.90;98.30;;;;;;5055003;28;20517;-81
2021/08/16 02:17:54;;;;;;;11.85;1.83;;;17.80;98.30;;;;;;5021802;28;20055;-80
2021/08/16 02:20:21;;;;;;;13.73;2.45;;;17.90;98.30;;;;;;5107735;28;20043;-81
2021/08/16 02:22:47;;;;;;;14.23;1.98;;;17.80;98.40;;;;;;5072492;28;20044;-81
2021/08/16 02:25:14;;;;;;;10.43;2.28;;;17.80;98.40;;;;;;5088773;28;20031;-81
2021/08/16 02:27:46;;;;;;;12.57;2.10;;;17.80;98.50;;;;;;5070463;28;20841;-80
2021/08/16 02:30:16;;;;;;;11.88;1.88;;;17.80;98.60;;;;;;5053214;28;20050;-81
2021/08/16 02:32:44;;;;;;;15.30;2.90;;;17.80;98.70;;;;;;5055825;28;20402;-81
2021/08/16 02:35:12;;;;;;;13.38;1.90;;;17.80;98.70;;;;;;5071956;27;20043;-81
2021/08/16 02:37:40;;;;;;;16.92;2.33;;;17.80;98.70;;;;;;5072182;28;20047;-81
2021/08/16 02:40:08;;;;;;;11.98;2.20;;;17.70;98.80;;;;;;5094050;28;20043;-81
2021/08/16 02:42:35;;;;;;;11.15;1.92;;;17.70;98.90;;;;;;5072381;28;20055;-81
2021/08/16 02:45:02;;;;;;;14.80;2.00;;;17.70;99.00;;;;;;5037239;28;20403;-81
2021/08/16 02:47:29;;;;;;;14.73;2.78;;;17.70;99.10;;;;;;5070985;28;20043;-80
2021/08/16 02:49:55;;;;;;;17.83;2.25;;;17.70;99.10;;;;;;5089963;27;20506;-81
2021/08/16 02:52:22;;;;;;;18.20;3.55;;;17.70;99.20;;;;;;5056158;28;20661;-81
2021/08/16 02:54:48;;;;;;;19.00;4.38;;;17.70;99.20;;;;;;5057341;28;20054;-81
2021/08/16 02:57:15;;;;;;;13.68;2.55;;;17.70;99.30;;;;;;5054512;28;20058;-81
2021/08/16 02:59:42;;;;;;;12.02;2.50;;;17.70;99.40;;;;;;5075295;28;20043;-81
2021/08/16 03:02:08;;;;;;;12.93;1.90;;;17.70;99.40;;;;;;5053745;28;20509;-81
2021/08/16 03:04:35;;;;;;;14.80;2.63;;;17.70;99.50;;;;;;5072857;28;20394;-82
2021/08/16 03:07:02;;;;;;;14.57;2.10;;;17.70;99.50;;;;;;5071709;28;20044;-81
2021/08/16 03:09:29;;;;;;;12.98;1.75;;;17.70;99.50;;;;;;5041144;28;20048;-81
2021/08/16 03:11:56;;;;;;;12.15;2.95;;;17.70;99.60;;;;;;5092347;28;20055;-81
2021/08/16 03:14:23;;;;;;;13.55;2.17;;;17.70;99.60;;;;;;5098044;28;20035;-81
2021/08/16 03:16:49;;;;;;;17.65;3.03;;;17.70;99.80;;;;;;5058603;28;20061;-81
2021/08/16 03:19:16;;;;;;;11.57;1.95;;;17.70;99.90;;;;;;5087420;28;20035;-81
2021/08/16 03:21:42;;;;;;;13.05;2.10;;;17.60;99.90;;;;;;5055693;28;20062;-81
2021/08/16 03:24:09;;;;;;;13.45;2.78;;;17.60;99.90;;;;;;5023107;28;20044;-81
2021/08/16 03:26:36;;;;;;;9.98;2.15;;;17.60;99.90;;;;;;5044644;28;20054;-82
2021/08/16 03:29:03;;;;;;;16.70;2.50;;;17.70;99.90;;;;;;5028007;28;20055;-81
2021/08/16 03:31:30;;;;;;;13.25;2.65;;;17.60;99.90;;;;;;5090826;27;20040;-81
2021/08/16 03:33:56;;;;;;;12.80;3.20;;;17.70;99.90;;;;;;5055601;28;20055;-81
2021/08/16 03:36:22;;;;;;;14.10;2.15;;;17.60;99.90;;;;;;5053681;28;20047;-81
2021/08/16 03:38:49;;;;;;;12.55;2.33;;;17.70;99.90;;;;;;5053280;28;20494;-81
2021/08/16 03:41:15;;;;;;;12.02;2.53;;;17.70;99.90;;;;;;5054733;28;20062;-81
2021/08/16 03:43:42;;;;;;;16.58;2.97;;;17.60;99.90;;;;;;5040108;28;20393;-81
2021/08/16 03:46:08;;;;;;;14.80;2.90;;;17.70;99.90;;;;;;5055262;28;20043;-81
2021/08/16 03:48:35;;;;;;;9.07;1.73;;;17.60;99.90;;;;;;5053200;28;20489;-81
2021/08/16 03:51:01;;;;;;;11.15;2.10;;;17.70;99.90;;;;;;5071538;28;20501;-80
2021/08/16 03:53:27;;;;;;;12.82;2.83;;;17.70;99.90;;;;;;5048363;28;20401;-81
2021/08/16 03:55:54;;;;;;;17.80;2.20;;;17.70;99.90;;;;;;5053819;28;20039;-80
2021/08/16 03:58:20;;;;;;;9.88;1.70;;;17.70;99.90;;;;;;5019931;28;20062;-81
2021/08/16 04:00:48;;;;;;;11.77;2.92;;;17.70;99.90;;;;;;5054900;27;20044;-81
2021/08/16 04:03:14;;;;;;;13.35;3.13;;;17.80;99.90;;;;;;5075003;28;20051;-81
2021/08/16 04:05:41;;;;;;;10.45;2.85;;;17.70;99.90;;;;;;5070708;28;20047;-81
2021/08/16 04:08:07;;;;;;;11.77;2.47;;;17.80;99.90;;;;;;5069089;28;20043;-80
2021/08/16 04:10:34;;;;;;;12.93;2.83;;;17.70;99.90;;;;;;5087978;28;20424;-81
2021/08/16 04:13:00;;;;;;;14.55;2.20;;;17.70;99.90;;;;;;5055040;28;20047;-81
2021/08/16 04:15:27;;;;;;;12.30;2.25;;;17.70;99.90;;;;;;5053261;28;20047;-81
2021/08/16 04:17:53;;;;;;;20.30;3.35;;;17.70;99.90;;;;;;5084790;28;20051;-81
2021/08/16 04:20:21;;;;;;;11.57;2.38;;;17.80;99.90;;;;;;5088125;28;20027;-81
2021/08/16 04:22:47;;;;;;;12.35;3.10;;;17.80;99.90;;;;;;5091261;28;20036;-80
2021/08/16 04:25:16;;;;;;;11.32;2.40;;;17.80;99.90;;;;;;5052838;28;20348;-81
2021/08/16 04:27:43;;;;;;;11.57;2.15;;;17.70;99.90;;;;;;5068075;28;20050;-80
2021/08/16 04:30:12;;;;;;;10.60;2.28;;;17.80;99.90;;;;;;5087870;28;20365;-81
2021/08/16 04:32:39;;;;;;;9.77;2.28;;;17.80;99.90;;;;;;5071191;28;20047;-80
2021/08/16 04:35:06;;;;;;;9.70;2.30;;;17.80;99.90;;;;;;5055254;28;20047;-81
2021/08/16 04:37:37;;;;;;;10.98;2.58;;;17.80;99.90;;;;;;5068404;28;20533;-81
2021/08/16 04:40:05;;;;;;;15.93;3.22;;;17.80;99.90;;;;;;5057574;28;20043;-82
2021/08/16 04:42:31;;;;;;;12.02;1.75;;;17.80;99.90;;;;;;5085876;28;20042;-82
2021/08/16 04:44:58;;;;;;;11.77;2.15;;;17.70;99.90;;;;;;5071375;28;20047;-82
2021/08/16 04:47:24;;;;;;;13.38;3.00;;;17.70;99.90;;;;;;5036878;28;20040;-81
2021/08/16 04:49:54;;;;;;;17.77;3.78;;;17.70;99.90;;;;;;5071021;28;20047;-81
2021/08/16 04:52:20;;;;;;;13.23;2.58;;;17.70;99.90;;;;;;5069982;28;20054;-81
2021/08/16 04:54:47;;;;;;;11.30;2.75;;;17.70;99.90;;;;;;5058186;28;20055;-82
2021/08/16 04:57:13;;;;;;;12.43;2.45;;;17.80;99.90;;;;;;5053828;28;20050;-81
2021/08/16 04:59:40;;;;;;;12.30;2.35;;;17.80;99.90;;;;;;5053755;28;20036;-81
2021/08/16 05:02:09;;;;;;;9.73;2.83;;;17.80;99.90;;;;;;5053408;28;20058;-82
2021/08/16 05:04:35;;;;;;;11.30;2.90;;;17.80;99.90;;;;;;5055088;28;20040;-82
2021/08/16 05:07:02;;;;;;;10.27;2.85;;;17.90;99.90;;;;;;5069265;28;20043;-80
2021/08/16 05:09:29;;;;;;;11.75;2.25;;;17.90;99.90;;;;;;5085996;28;20043;-81
2021/08/16 05:11:56;;;;;;;14.40;3.50;;;17.90;99.90;;;;;;5074188;28;20039;-81
2021/08/16 05:14:22;;;;;;;14.00;3.53;;;17.90;99.90;;;;;;5073403;28;20045;-81
2021/08/16 05:16:49;;;;;;;14.20;2.67;;;18.00;99.90;;;;;;5055766;28;20051;-81
2021/08/16 05:19:15;;;;;;;10.55;2.83;;;18.00;99.90;;;;;;5056936;28;20055;-82
2021/08/16 05:21:42;;;;;;;12.48;3.45;;;18.00;99.90;;;;;;5057784;27;20043;-81
2021/08/16 05:24:08;;;;;;;10.80;2.70;;;18.00;99.90;;;;;;5075036;28;20921;-81
2021/08/16 05:26:35;;;;;;;14.88;3.40;;;18.00;99.90;;;;;;5023533;28;20056;-82
2021/08/16 05:29:01;;;;;;;10.70;2.78;;;18.00;99.90;;;;;;5039677;28;20036;-81
2021/08/16 05:31:28;;;;;;;13.13;3.08;;;18.10;99.90;;;;;;5090916;28;20393;-81
2021/08/16 05:33:54;;;;;;;15.25;3.45;;;18.10;99.90;;;;;;5072993;28;20052;-82
2021/08/16 05:36:20;;;;;;;12.75;4.38;;;18.10;99.90;;;;;;5054911;28;20479;-81
2021/08/16 05:38:47;;;;;;;9.38;2.88;;;18.10;99.90;;;;;;5056278;28;20050;-81
2021/08/16 05:41:13;;;;;;;9.98;2.88;;;18.10;99.90;;;;;;5042153;28;20055;-81
2021/08/16 05:43:40;;;;;;;9.00;3.63;;;18.10;99.90;;;;;;5075707;28;20035;-81
2021/08/16 05:46:09;;;;;;;11.95;4.25;;;18.10;99.90;;;;;;5073273;28;20050;-82
2021/08/16 05:48:35;;;;;;;13.98;4.40;;;18.20;99.90;;;;;;5037934;28;20043;-81
2021/08/16 05:51:02;;;;;;;14.88;5.57;;;18.20;99.90;;;;;;5074119;28;20047;-82
2021/08/16 05:53:28;;;;;;;14.02;5.03;;;18.20;99.90;;;;;;5030320;28;20058;-81
2021/08/16 05:55:55;;;;;;;10.10;4.03;;;18.30;99.90;;;;;;5056161;27;20070;-81
2021/08/16 05:58:21;;;;;;;11.45;5.00;;;18.30;99.90;;;;;;5037627;28;20056;-82
2021/08/16 06:00:47;;;;;;;16.17;5.90;;;18.30;99.90;;;;;;5073051;27;20051;-81
2021/08/16 06:03:14;;;;;;;13.73;5.22;;;18.30;99.90;;;;;;5072293;28;20036;-82
2021/08/16 06:05:40;;;;;;;18.25;6.75;;;18.30;99.90;;;;;;5055505;28;20821;-80
2021/08/16 06:08:07;;;;;;;17.20;6.00;;;18.20;99.90;;;;;;5054780;28;20047;-81
2021/08/16 06:10:33;;;;;;;17.23;6.72;;;18.20;99.90;;;;;;5041027;27;20044;-81
2021/08/16 06:13:00;;;;;;;11.48;5.80;;;18.20;99.90;;;;;;5040321;28;20048;-81
2021/08/16 06:15:26;;;;;;;17.88;6.53;;;18.20;99.90;;;;;;5043154;28;20539;-80
2021/08/16 06:17:53;;;;;;;15.25;6.93;;;18.20;99.90;;;;;;5071836;28;20047;-85
2021/08/16 06:20:19;;;;;;;13.77;6.55;;;18.20;99.90;;;;;;5056989;27;20043;-81
2021/08/16 06:22:46;;;;;;;10.50;5.05;;;18.20;99.90;;;;;;5094580;28;20857;-82
2021/08/16 06:25:12;;;;;;;15.32;7.85;;;18.30;99.90;;;;;;5039410;28;20043;-81
2021/08/16 06:27:39;;;;;;;20.40;7.35;;;18.20;99.90;;;;;;5044393;28;20706;-81
2021/08/16 06:30:06;;;;;;;13.40;5.75;;;18.30;99.90;;;;;;5075548;27;20027;-81
2021/08/16 06:32:37;;;;;;;9.90;4.82;;;18.30;99.90;;;;;;5057919;28;20059;-86
2021/08/16 06:35:05;;;;;;;14.15;7.22;;;18.30;99.90;;;;;;5071052;28;20044;-82
2021/08/16 06:37:31;;;;;;;15.55;8.55;;;18.30;99.90;;;;;;5087848;28;20031;-79
2021/08/16 06:39:58;;;;;;;25.23;11.63;;;18.30;99.90;;;;;;5053730;28;20063;-79
2021/08/16 06:42:24;;;;;;;19.02;12.20;;;18.10;99.90;;;;;;5055036;28;20040;-79
2021/08/16 06:44:51;;;;;;;18.63;10.40;;;18.00;99.90;;;;;;5055670;27;20801;-78
2021/08/16 06:47:18;;;;;;;16.60;10.55;;;17.80;99.90;;;;;;5088374;28;21338;-77
2021/08/16 06:49:45;;;;;;;19.63;11.07;;;17.70;99.90;;;;;;5070088;28;20331;-78
2021/08/16 06:52:11;;;;;;;15.48;10.85;;;17.60;99.90;;;;;;5073309;27;20054;-81
2021/08/16 06:54:38;;;;;;;19.48;12.50;;;17.50;99.90;;;;;;5059653;27;20042;-80
2021/08/16 06:57:05;;;;;;;13.75;10.52;;;17.40;99.90;;;;;;5042439;28;20581;-78
2021/08/16 06:59:34;;;;;;;18.77;12.10;;;17.40;99.90;;;;;;5055479;28;20039;-76
2021/08/16 07:02:01;;;;;;;24.67;14.60;;;17.30;99.90;;;;;;5088642;27;20038;-76
2021/08/16 07:04:28;;;;;;;18.80;12.32;;;17.20;99.90;;;;;;5104427;27;20039;-76
2021/08/16 07:06:54;;;;;;;18.65;12.05;;;17.20;99.90;;;;;;5052632;28;20042;-76
2021/08/16 07:09:21;;;;;;;17.48;13.45;;;17.10;99.90;;;;;;5089533;27;20043;-75
2021/08/16 07:11:48;;;;;;;25.75;16.02;;;17.00;99.90;;;;;;5090367;27;20035;-77
2021/08/16 07:14:14;;;;;;;14.35;11.98;;;17.00;99.90;;;;;;5067329;28;20059;-76
2021/08/16 07:16:41;;;;;;;15.43;10.88;;;17.00;99.90;;;;;;5048184;28;20066;-76
2021/08/16 07:19:07;;;;;;;10.77;9.63;;;16.90;99.90;;;;;;5085707;28;20043;-76
2021/08/16 07:21:33;;;;;;;16.70;9.93;;;16.90;99.90;;;;;;5040733;27;20047;-76
2021/08/16 07:24:01;;;;;;;12.32;8.13;;;17.00;99.90;;;;;;5056664;27;20075;-76
2021/08/16 07:26:28;;;;;;;11.40;7.85;;;17.00;99.90;;;;;;5040958;28;20386;-76
2021/08/16 07:28:54;;;;;;;11.98;7.50;;;17.00;99.90;;;;;;5033962;28;20062;-76
2021/08/16 07:31:21;;;;;;;9.25;6.07;;;17.00;99.90;;;;;;5069026;28;20035;-76
2021/08/16 07:33:47;;;;;;;9.00;6.70;;;17.10;99.90;;;;;;5069552;28;20810;-76
2021/08/16 07:36:14;;;;;;;7.85;6.20;;;17.10;99.90;;;;;;5052829;27;20070;-75
2021/08/16 07:38:43;;;;;;;6.32;5.07;;;17.10;99.90;;;;;;5038527;27;20058;-76
2021/08/16 07:41:09;;;;;;;8.32;5.32;;;17.00;99.90;;;;;;5105466;27;20047;-78
2021/08/16 07:43:36;;;;;;;5.03;3.67;;;17.00;99.90;;;;;;5070178;28;20047;-75
2021/08/16 07:46:03;;;;;;;4.22;2.97;;;16.90;99.90;;;;;;5068595;28;20500;-76
2021/08/16 07:48:29;;;;;;;5.13;2.00;;;16.80;99.90;;;;;;5070246;28;20098;-80
2021/08/16 07:50:56;;;;;;;5.45;1.80;;;16.80;99.90;;;;;;5044104;28;20032;-82
2021/08/16 07:53:22;;;;;;;5.18;1.52;;;16.80;99.90;;;;;;5051199;28;20048;-81
2021/08/16 07:55:49;;;;;;;5.28;1.60;;;16.80;99.90;;;;;;5036144;28;20051;-81
2021/08/16 07:58:15;;;;;;;3.72;1.42;;;16.80;99.90;;;;;;5054625;28;20059;-81
2021/08/16 08:00:42;;;;;;;7.40;2.13;;;16.80;99.90;;;;;;5070751;28;20044;-80
2021/08/16 08:03:08;;;;;;;10.20;2.20;;;16.80;99.90;;;;;;5071602;28;20046;-81
2021/08/16 08:05:35;;;;;;;7.60;2.03;;;16.80;99.90;;;;;;5053046;28;20415;-81
2021/08/16 08:08:01;;;;;;;4.68;2.03;;;16.80;99.90;;;;;;5059965;28;20035;-81
2021/08/16 08:10:28;;;;;;;5.13;1.50;;;16.80;99.90;;;;;;5071265;28;20043;-81
2021/08/16 08:12:54;;;;;;;4.65;1.65;;;16.80;99.90;;;;;;5105438;28;20502;-81
2021/08/16 08:15:20;;;;;;;7.20;1.50;;;16.80;99.90;;;;;;5069196;28;20046;-81
2021/08/16 08:17:47;;;;;;;7.95;1.40;;;16.70;99.90;;;;;;5041660;28;20082;-80
2021/08/16 08:20:14;;;;;;;3.55;1.30;;;16.60;99.90;;;;;;5105961;28;20038;-80
2021/08/16 08:22:40;;;;;;;6.15;1.88;;;16.50;99.90;;;;;;5073617;28;20039;-81
2021/08/16 08:25:07;;;;;;;4.47;1.55;;;16.40;99.90;;;;;;5088046;28;20347;-81
2021/08/16 08:27:34;;;;;;;8.52;2.38;;;16.40;99.90;;;;;;5086084;28;20042;-80
2021/08/16 08:30:00;;;;;;;5.28;1.95;;;16.30;99.90;;;;;;5054109;28;20067;-81
2021/08/16 08:32:27;;;;;;;5.65;2.45;;;16.30;99.90;;;;;;5037665;28;20039;-80
2021/08/16 08:34:53;;;;;;;5.68;1.88;;;16.30;99.90;;;;;;5053721;28;20058;-82
2021/08/16 08:37:19;;;;;;;6.50;1.75;;;16.30;99.90;;;;;;5060429;28;20040;-80
2021/08/16 08:39:47;;;;;;;6.03;2.03;;;16.20;99.90;;;;;;5086443;28;20731;-80
2021/08/16 08:42:15;;;;;;;6.47;2.17;;;16.10;99.90;;;;;;5054272;28;20039;-81
2021/08/16 08:44:42;;;;;;;6.32;1.70;;;16.10;99.90;;;;;;5085555;28;20042;-81
2021/08/16 08:47:11;;;;;;;4.93;1.58;;;16.20;99.90;;;;;;5055069;28;20419;-81
2021/08/16 08:49:38;;;;;;;3.90;1.73;;;16.30;99.90;;;;;;5073566;28;20044;-81
2021/08/16 08:52:05;;;;;;;4.40;1.55;;;16.30;99.90;;;;;;5059833;28;20058;-81
2021/08/16 08:54:34;;;;;;;7.53;2.35;;;16.40;99.90;;;;;;5091971;28;20035;-81
2021/08/16 08:57:01;;;;;;;8.38;2.70;;;16.50;99.90;;;;;;5058876;28;20066;-81
2021/08/16 08:59:27;;;;;;;8.60;2.20;;;16.70;99.90;;;;;;5056339;28;20050;-83
2021/08/16 09:01:55;;;;;;;5.30;2.00;;;16.90;99.90;;;;;;5073876;28;20401;-81
2021/08/16 09:04:22;;;;;;;9.38;1.98;;;17.00;99.90;;;;;;5093388;28;20043;-80
2021/08/16 09:06:49;;;;;;;6.88;2.25;;;17.10;99.90;;;;;;5067132;27;20030;-80
2021/08/16 09:09:16;;;;;;;4.95;3.22;;;17.20;99.90;;;;;;5076838;27;20034;-81
2021/08/16 09:11:51;;;;;;;6.63;2.38;;;17.30;99.90;;;;;;5089867;28;20036;-81
2021/08/16 09:14:19;;;;;;;4.78;1.73;;;17.30;99.90;;;;;;5088544;28;20058;-80
2021/08/16 09:16:47;;;;;;;7.47;2.65;;;17.40;99.90;;;;;;5089116;28;20043;-81
2021/08/16 09:19:23;;;;;;;6.88;2.10;;;17.40;99.90;;;;;;5071023;28;20050;-76
2021/08/16 09:22:03;;;;;;;8.80;2.58;;;17.60;99.90;;;;;;5054834;27;20055;-76
2021/08/16 09:24:33;;;;;;;8.77;2.40;;;17.70;99.90;;;;;;5057613;28;20043;-76
2021/08/16 09:27:04;;;;;;;10.90;4.32;;;17.90;99.90;;;;;;5055679;27;20039;-77
2021/08/16 09:29:31;;;;;;;6.28;2.38;;;18.00;99.90;;;;;;5036982;28;20047;-77
2021/08/16 09:32:01;;;;;;;4.72;1.60;;;18.00;99.90;;;;;;5071888;28;20070;-77
2021/08/16 09:34:48;;;;;;;5.72;1.85;;;18.00;99.90;;;;;;5071811;28;20039;-76
2021/08/16 09:37:25;;;;;;;7.35;1.95;;;18.10;99.90;;;;;;5053273;28;20047;-76
2021/08/16 09:40:07;;;;;;;10.18;1.85;;;18.00;99.90;;;;;;5069286;28;20074;-77
2021/08/16 09:42:41;;;;;;;4.55;1.42;;;18.00;99.90;;;;;;5054315;28;20150;-77
2021/08/16 09:45:08;;;;;;;3.70;1.77;;;18.00;99.90;;;;;;5088153;28;20051;-81
2021/08/16 09:47:45;;;;;;;5.90;2.25;;;17.90;99.90;;;;;;5054911;28;20051;-79
2021/08/16 09:50:12;;;;;;;5.65;1.52;;;17.90;99.90;;;;;;5072914;28;20055;-80
2021/08/16 09:52:40;;;;;;;10.00;2.17;;;17.80;99.90;;;;;;5056708;28;20035;-79
2021/08/16 09:55:07;;;;;;;4.55;1.27;;;17.80;99.90;;;;;;5091741;28;20032;-79
2021/08/16 09:57:34;;;;;;;7.35;2.15;;;17.70;99.90;;;;;;5088054;28;20474;-79
2021/08/16 10:00:02;;;;;;;7.88;1.70;;;17.70;99.90;;;;;;5090559;28;20035;-79
2021/08/16 10:02:30;;;;;;;6.18;1.35;;;17.80;99.90;;;;;;5089435;28;20054;-79
2021/08/16 10:04:57;;;;;;;7.53;1.95;;;18.00;99.90;;;;;;5093537;28;20402;-79
2021/08/16 10:07:30;;;;;;;10.40;2.75;;;18.10;99.90;;;;;;5072061;27;20047;-79
2021/08/16 10:10:02;;;;;;;7.10;2.45;;;18.20;99.90;;;;;;5072847;28;20040;-80
2021/08/16 10:12:32;;;;;;;10.43;1.95;;;18.20;99.90;;;;;;5091481;27;20042;-81
2021/08/16 10:15:00;;;;;;;10.52;2.17;;;18.20;99.90;;;;;;5076070;27;20044;-79
2021/08/16 10:17:35;;;;;;;6.75;2.00;;;18.30;99.90;;;;;;5056251;28;20048;-79
2021/08/16 10:20:02;;;;;;;9.93;2.50;;;18.40;99.90;;;;;;5049738;28;20051;-77
2021/08/16 10:22:36;;;;;;;10.75;1.85;;;18.50;99.90;;;;;;5082930;28;20048;-75
2021/08/16 10:25:10;;;;;;;8.30;3.10;;;18.70;99.90;;;;;;5083377;28;20051;-76
2021/08/16 10:27:36;;;;;;;8.73;2.70;;;19.00;99.90;;;;;;5052476;28;20044;-79
2021/08/16 10:30:06;;;;;;;9.30;3.30;;;19.40;99.90;;;;;;5067736;28;20036;-80
2021/08/16 10:32:32;;;;;;;10.45;3.13;;;19.70;99.90;;;;;;5053371;28;20071;-79
2021/08/16 10:35:16;;;;;;;9.18;3.15;;;19.90;99.90;;;;;;5049635;28;20063;-80
2021/08/16 10:37:44;;;;;;;8.93;2.60;;;20.10;99.90;;;;;;5053323;28;20054;-80
2021/08/16 10:40:26;;;;;;;11.52;3.00;;;20.20;99.90;;;;;;5071493;28;20047;-80
2021/08/16 10:42:55;;;;;;;8.00;3.08;;;20.30;99.90;;;;;;5082348;28;20027;-80
2021/08/16 10:45:27;;;;;;;10.75;2.72;;;20.30;99.00;;;;;;5065835;28;20036;-80
2021/08/16 10:48:06;;;;;;;;;;;20.50;99.70;;;;;;5065018;28;20044;-80
2021/08/16 10:50:34;;;;;;;10.18;4.30;;;20.70;99.30;;;;;;5085890;28;19915;-80
2021/08/16 10:53:06;;;;;;;7.10;2.67;;;20.70;97.20;;;;;;5084326;28;20876;-80
2021/08/16 10:55:40;;;;;;;8.25;2.67;;;20.60;96.80;;;;;;5085401;28;20032;-80
2021/08/16 10:58:08;;;;;;;5.50;2.55;;;20.50;96.30;;;;;;5082084;28;20036;-80
2021/08/16 11:00:36;;;;;;;7.55;2.90;;;20.30;95.90;;;;;;5054018;28;20063;-80
2021/08/16 11:03:02;;;;;;;7.70;3.47;;;20.20;96.20;;;;;;5086122;28;20074;-80
2021/08/16 11:05:37;;;;;;;9.05;3.08;;;20.10;96.20;;;;;;5066497;28;20044;-80
2021/08/16 11:08:05;;;;;;;9.18;3.08;;;20.10;96.30;;;;;;5081302;28;20516;-80
2021/08/16 11:10:50;;;;;;;7.38;2.50;;;20.00;96.50;;;;;;5083270;28;20475;-79
2021/08/16 11:13:19;;;;;;;5.43;2.40;;;20.10;96.20;;;;;;5049659;28;20047;-80
2021/08/16 11:15:47;;;;;;;5.00;1.98;;;20.10;95.10;;;;;;5049360;28;20470;-80
2021/08/16 11:18:19;;;;;;;3.90;1.65;;;20.10;95.10;;;;;;5076334;28;20048;-80
2021/08/16 11:20:58;;;;;;;5.28;1.80;;;20.00;95.00;;;;;;5074130;28;20032;-80
2021/08/16 11:23:25;;;;;;;3.63;1.60;;;19.90;94.90;;;;;;5053136;28;20044;-80
2021/08/16 11:25:53;;;;;;;4.75;1.98;;;19.70;95.20;;;;;;5052847;28;20041;-80
2021/08/16 11:28:22;;;;;;;10.85;2.95;;;19.50;96.00;;;;;;5033282;28;20044;-80
2021/08/16 11:30:49;;;;;;;6.05;2.55;;;19.30;96.90;;;;;;5054330;28;20036;-80
2021/08/16 11:33:25;;;;;;;5.03;1.98;;;19.10;97.60;;;;;;5050078;28;20052;-79
2021/08/16 11:36:08;;;;;;;5.88;1.20;;;19.00;97.80;;;;;;5020333;28;20049;-81
2021/08/16 11:38:35;;;;;;;4.45;1.17;;;18.70;97.40;;;;;;5033386;28;20047;-80
2021/08/16 11:41:13;;;;;;;3.33;1.30;;;18.40;97.10;;;;;;5053155;28;20055;-81
2021/08/16 11:43:40;;;;;;;2.45;1.00;;;17.90;97.60;;;;;;5053245;28;20052;-80
2021/08/16 11:46:33;;;;;;;3.40;1.15;;;17.50;98.30;;;;;;5064781;28;20040;-80
2021/08/16 11:49:00;;;;;;;3.10;1.20;;;17.10;99.40;;;;;;5047427;28;20040;-80
2021/08/16 11:51:31;;;;;;;3.55;1.35;;;17.00;99.90;;;;;;5049706;28;20039;-80
2021/08/16 11:53:58;;;;;;;2.40;1.20;;;17.10;99.90;;;;;;5050163;28;20130;-81
2021/08/16 11:56:24;;;;;;;3.03;1.30;;;17.40;99.90;;;;;;5065968;28;20075;-80
2021/08/16 11:58:56;;;;;;;5.97;1.95;;;17.80;99.90;;;;;;5049202;28;20047;-80
2021/08/16 12:01:23;;;;;;;5.22;2.03;;;17.90;99.90;;;;;;5069459;28;20055;-80
2021/08/16 12:03:50;;;;;;;5.13;1.70;;;18.00;99.90;;;;;;5066531;28;20036;-79
2021/08/16 12:06:18;;;;;;;4.70;1.58;;;17.90;99.80;;;;;;5081878;28;20066;-80
2021/08/16 12:08:47;;;;;;;4.32;1.10;;;17.90;99.80;;;;;;5064766;28;20487;-81
2021/08/16 12:11:18;;;;;;;7.03;1.75;;;17.90;99.70;;;;;;5049060;28;20055;-81
2021/08/16 12:13:45;;;;;;;6.85;2.20;;;17.80;99.50;;;;;;5040589;28;20045;-81
2021/08/16 12:16:14;;;;;;;9.95;2.45;;;17.60;99.40;;;;;;5069979;28;20040;-79
2021/08/16 12:18:55;;;;;;;6.05;1.77;;;17.40;99.70;;;;;;5075218;28;20039;-83
2021/08/16 12:21:24;;;;;;;7.28;2.28;;;17.10;99.90;;;;;;5070507;28;20051;-80
2021/08/16 12:24:06;;;;;;;6.43;1.70;;;16.90;99.90;;;;;;5142367;27;20156;-80
2021/08/16 12:26:44;;;;;;;7.50;2.22;;;16.80;99.90;;;;;;5137518;27;20119;-80
2021/08/16 12:29:24;;;;;;;5.03;1.40;;;16.90;99.90;;;;;;5097349;27;1383403;-80
2021/08/16 12:32:13;;;;;;;6.65;1.90;;;17.10;99.90;;;;;;5107288;27;21122;-80
2021/08/16 12:34:50;;;;;;;5.90;1.90;;;17.20;99.90;;;;;;5092743;27;1466126;-80
2021/08/16 12:37:30;;;;;;;5.18;1.92;;;17.30;99.90;;;;;;5109384;27;20896;-80
2021/08/16 12:40:13;;;;;;;8.82;2.15;;;17.30;99.90;;;;;;5070335;28;20405;-82
2021/08/16 12:42:59;;;;;;;6.47;1.58;;;17.40;99.90;;;;;;5067518;28;20409;-79
2021/08/16 12:45:37;;;;;;;8.93;3.35;;;17.40;99.90;;;;;;5104240;27;20434;-78